createdAt,value
2023-05-10T00:00:30.250Z,11.55
2023-05-10T00:02:57.847Z,11.53
2023-05-10T00:05:25.756Z,11.50
2023-05-10T00:07:53.206Z,11.49
2023-05-10T00:10:20.710Z,11.44
2023-05-10T00:12:48.475Z,11.41
2023-05-10T00:15:15.956Z,11.41
2023-05-10T00:17:43.825Z,11.37
2023-05-10T00:20:11.968Z,11.34
2023-05-10T00:22:39.726Z,11.32
2023-05-10T00:25:08.120Z,11.31
2023-05-10T00:27:35.861Z,11.28
2023-05-10T00:30:03.573Z,11.24
2023-05-10T00:32:31.996Z,11.23
2023-05-10T00:34:59.559Z,11.21
2023-05-10T00:37:28.292Z,11.18
2023-05-10T00:39:56.524Z,11.16
2023-05-10T00:42:23.975Z,11.15
2023-05-10T00:44:53.524Z,11.15
2023-05-10T00:47:21.200Z,11.16
2023-05-10T00:49:48.691Z,11.14
2023-05-10T00:52:16.287Z,11.13
2023-05-10T00:54:43.891Z,11.13
2023-05-10T00:57:12.314Z,11.12
2023-05-10T00:59:39.836Z,11.10
2023-05-10T01:02:07.887Z,11.10
2023-05-10T01:04:36.572Z,11.09
2023-05-10T01:07:04.724Z,11.09
2023-05-10T01:09:32.378Z,11.07
2023-05-10T01:12:00.171Z,11.06
2023-05-10T01:14:27.862Z,11.04
2023-05-10T01:16:55.609Z,11.03
2023-05-10T01:19:26.527Z,11.01
2023-05-10T01:22:31.482Z,10.98
2023-05-10T01:24:58.882Z,10.98
2023-05-10T01:27:52.564Z,10.95
2023-05-10T01:30:39.715Z,10.97
2023-05-10T01:33:20.681Z,10.96
2023-05-10T01:36:09.835Z,10.94
2023-05-10T01:38:48.132Z,10.93
2023-05-10T01:41:19.763Z,10.94
2023-05-10T01:43:59.698Z,10.95
2023-05-10T01:46:37.171Z,10.95
2023-05-10T01:49:28.294Z,10.95
2023-05-10T01:51:58.110Z,10.90
2023-05-10T01:54:26.865Z,10.90
2023-05-10T01:56:59.943Z,10.88
2023-05-10T01:59:30.755Z,10.86
2023-05-10T02:01:59.107Z,10.84
2023-05-10T02:04:26.958Z,10.82
2023-05-10T02:06:54.840Z,10.81
2023-05-10T02:09:22.756Z,10.81
2023-05-10T02:11:52.104Z,10.80
2023-05-10T02:14:28.019Z,10.79
2023-05-10T02:16:55.496Z,10.79
2023-05-10T02:19:23.388Z,10.82
2023-05-10T02:21:52.337Z,10.83
2023-05-10T02:24:19.796Z,10.82
2023-05-10T02:26:47.418Z,10.81
2023-05-10T02:29:15.618Z,10.79
2023-05-10T02:31:44.672Z,10.82
2023-05-10T02:34:12.392Z,10.84
2023-05-10T02:36:40.184Z,10.83
2023-05-10T02:39:11.078Z,10.82
2023-05-10T02:41:38.748Z,10.85
2023-05-10T02:44:06.489Z,10.85
2023-05-10T02:46:34.657Z,10.85
2023-05-10T02:49:03.731Z,10.86
2023-05-10T02:51:34.776Z,10.87
2023-05-10T02:54:09.708Z,10.86
2023-05-10T02:56:37.459Z,10.84
2023-05-10T02:59:06.014Z,10.84
2023-05-10T03:01:33.644Z,10.85
2023-05-10T03:04:01.318Z,10.87
2023-05-10T03:06:29.718Z,10.89
2023-05-10T03:08:57.668Z,10.89
2023-05-10T03:11:40.925Z,10.88
2023-05-10T03:14:22.100Z,10.85
2023-05-10T03:17:09.583Z,10.85
2023-05-10T03:19:55.300Z,10.86
2023-05-10T03:22:32.442Z,10.89
2023-05-10T03:24:59.988Z,10.88
2023-05-10T03:27:30.797Z,10.88
2023-05-10T03:29:58.230Z,10.89
2023-05-10T03:32:25.758Z,10.90
2023-05-10T03:34:53.311Z,10.90
2023-05-10T03:37:20.855Z,10.89
2023-05-10T03:39:48.667Z,10.92
2023-05-10T03:42:16.340Z,10.94
2023-05-10T03:44:43.816Z,10.92
2023-05-10T03:47:11.397Z,10.95
2023-05-10T03:49:39.387Z,10.99
2023-05-10T03:52:07.565Z,11.02
2023-05-10T03:54:35.912Z,10.99
2023-05-10T03:57:04.034Z,11.00
2023-05-10T03:59:32.520Z,11.02
2023-05-10T04:02:00.348Z,11.05
2023-05-10T04:04:28.395Z,11.04
2023-05-10T04:06:55.986Z,11.07
2023-05-10T04:09:23.637Z,11.07
2023-05-10T04:11:51.334Z,11.09
2023-05-10T04:14:18.870Z,11.09
2023-05-10T04:16:46.678Z,11.12
2023-05-10T04:19:14.271Z,11.15
2023-05-10T04:21:41.802Z,11.16
2023-05-10T04:24:09.522Z,11.19
2023-05-10T04:26:37.099Z,11.16
2023-05-10T04:29:04.926Z,11.21
2023-05-10T04:31:32.558Z,11.19
2023-05-10T04:34:00.364Z,11.22
2023-05-10T04:36:28.804Z,11.24
2023-05-10T04:38:56.227Z,11.26
2023-05-10T04:41:24.160Z,11.29
2023-05-10T04:43:51.655Z,11.33
2023-05-10T04:46:19.220Z,11.33
2023-05-10T04:48:46.763Z,11.35
2023-05-10T04:51:14.273Z,11.37
2023-05-10T04:53:44.649Z,11.38
2023-05-10T04:56:17.089Z,11.44
2023-05-10T04:58:45.106Z,11.53
2023-05-10T05:01:12.753Z,11.55
2023-05-10T05:03:40.527Z,11.62
2023-05-10T05:06:08.310Z,11.68
2023-05-10T05:08:36.143Z,11.74
2023-05-10T05:11:03.946Z,11.79
2023-05-10T05:13:33.618Z,11.86
2023-05-10T05:16:02.739Z,11.99
2023-05-10T05:18:30.587Z,12.05
2023-05-10T05:20:58.840Z,12.10
2023-05-10T05:23:26.831Z,12.16
2023-05-10T05:25:55.010Z,12.20
2023-05-10T05:28:22.865Z,12.26
2023-05-10T05:30:50.357Z,12.30
2023-05-10T05:33:18.477Z,12.32
2023-05-10T05:35:51.656Z,12.34
2023-05-10T05:38:19.248Z,12.35
2023-05-10T05:40:46.980Z,12.36
2023-05-10T05:43:14.600Z,12.41
2023-05-10T05:45:42.332Z,12.49
2023-05-10T05:48:10.456Z,12.55
2023-05-10T05:50:37.934Z,12.61
2023-05-10T05:53:05.419Z,12.65
2023-05-10T05:55:33.066Z,12.68
2023-05-10T05:58:00.510Z,12.65
2023-05-10T06:00:28.094Z,12.58
2023-05-10T06:02:55.634Z,12.54
2023-05-10T06:05:23.382Z,12.59
2023-05-10T06:07:50.836Z,12.63
2023-05-10T06:10:18.323Z,12.68
2023-05-10T06:12:46.154Z,12.73
2023-05-10T06:15:13.727Z,12.73
2023-05-10T06:17:41.534Z,12.80
2023-05-10T06:20:09.839Z,12.86
2023-05-10T06:22:37.898Z,12.83
2023-05-10T06:25:05.664Z,12.82
2023-05-10T06:27:33.521Z,12.92
2023-05-10T06:30:12.402Z,12.99
2023-05-10T06:32:41.951Z,12.97
2023-05-10T06:35:10.116Z,13.10
2023-05-10T06:37:38.030Z,13.06
2023-05-10T06:40:07.572Z,13.09
2023-05-10T06:42:36.079Z,13.12
2023-05-10T06:45:04.786Z,13.19
2023-05-10T06:47:32.826Z,13.12
2023-05-10T06:50:00.669Z,13.05
2023-05-10T06:52:28.264Z,13.12
2023-05-10T06:54:55.744Z,13.23
2023-05-10T06:57:31.300Z,13.33
2023-05-10T07:00:05.254Z,13.41
2023-05-10T07:02:33.397Z,13.43
2023-05-10T07:05:03.109Z,13.45
2023-05-10T07:07:32.457Z,13.47
2023-05-10T07:10:00.328Z,13.45
2023-05-10T07:12:27.903Z,13.44
2023-05-10T07:14:55.470Z,13.55
2023-05-10T07:17:23.259Z,13.64
2023-05-10T07:19:51.357Z,13.72
2023-05-10T07:22:19.011Z,13.73
2023-05-10T07:24:47.260Z,13.78
2023-05-10T07:27:15.076Z,13.82
2023-05-10T07:29:43.227Z,13.88
2023-05-10T07:32:10.968Z,13.93
2023-05-10T07:34:38.583Z,13.89
2023-05-10T07:37:07.334Z,13.83
2023-05-10T07:39:34.841Z,13.78
2023-05-10T07:42:02.396Z,13.70
2023-05-10T07:44:30.194Z,13.61
2023-05-10T07:46:57.762Z,13.56
2023-05-10T07:49:25.441Z,13.50
2023-05-10T07:51:52.982Z,13.29
2023-05-10T07:54:20.576Z,13.16
2023-05-10T07:56:48.952Z,13.15
2023-05-10T07:59:17.316Z,13.28
2023-05-10T08:01:44.943Z,13.38
2023-05-10T08:04:12.961Z,13.43
2023-05-10T08:06:41.338Z,13.44
2023-05-10T08:09:09.785Z,13.39
2023-05-10T08:11:37.725Z,13.40
2023-05-10T08:14:05.480Z,13.33
2023-05-10T08:16:33.561Z,13.27
2023-05-10T08:19:01.412Z,13.36
2023-05-10T08:21:29.385Z,13.44
2023-05-10T08:23:57.014Z,13.46
2023-05-10T08:26:24.627Z,13.38
2023-05-10T08:28:52.139Z,13.43
2023-05-10T08:31:19.750Z,13.40
2023-05-10T08:33:47.573Z,13.37
2023-05-10T08:36:20.735Z,13.44
2023-05-10T08:38:52.113Z,13.50
2023-05-10T08:41:22.104Z,13.52
2023-05-10T08:43:54.021Z,13.55
2023-05-10T08:46:22.476Z,13.54
2023-05-10T08:48:51.438Z,13.62
2023-05-10T08:51:20.623Z,13.67
2023-05-10T08:53:48.134Z,13.72
2023-05-10T08:56:16.976Z,13.80
2023-05-10T08:58:44.964Z,13.68
2023-05-10T09:01:12.517Z,13.57
2023-05-10T09:03:40.261Z,13.55
2023-05-10T09:06:08.018Z,13.53
2023-05-10T09:08:35.841Z,13.51
2023-05-10T09:11:03.922Z,13.52
2023-05-10T09:13:31.457Z,13.52
2023-05-10T09:16:06.973Z,13.48
2023-05-10T09:18:41.637Z,13.48
2023-05-10T09:21:09.444Z,13.61
2023-05-10T09:23:37.829Z,13.70
2023-05-10T09:26:08.485Z,13.79
2023-05-10T09:28:51.160Z,13.81
2023-05-10T09:31:18.660Z,13.94
2023-05-10T09:33:49.430Z,14.07
2023-05-10T09:36:17.291Z,14.13
2023-05-10T09:38:55.309Z,14.17
2023-05-10T09:41:23.673Z,14.16
2023-05-10T09:43:51.186Z,14.13
2023-05-10T09:46:18.777Z,14.15
2023-05-10T09:48:47.368Z,14.27
2023-05-10T09:51:21.654Z,14.33
2023-05-10T09:53:51.536Z,14.45
2023-05-10T09:56:40.043Z,14.63
2023-05-10T09:59:11.519Z,14.78
2023-05-10T10:01:39.670Z,14.84
2023-05-10T10:04:08.550Z,14.90
2023-05-10T10:06:40.018Z,14.92
2023-05-10T10:09:08.080Z,14.95
2023-05-10T10:11:36.924Z,15.01
2023-05-10T10:14:04.546Z,14.94
2023-05-10T10:16:32.774Z,15.04
2023-05-10T10:19:01.017Z,15.10
2023-05-10T10:21:28.669Z,15.02
2023-05-10T10:23:56.324Z,14.89
2023-05-10T10:26:23.853Z,14.84
2023-05-10T10:29:10.482Z,14.72
2023-05-10T10:31:41.964Z,14.72
2023-05-10T10:34:09.406Z,14.74
2023-05-10T10:36:48.120Z,14.76
2023-05-10T10:39:15.729Z,14.74
2023-05-10T10:41:57.774Z,14.70
2023-05-10T10:44:38.050Z,14.71
2023-05-10T10:47:12.636Z,14.75
2023-05-10T10:49:53.282Z,14.76
2023-05-10T10:52:34.586Z,14.77
2023-05-10T10:55:02.504Z,14.74
2023-05-10T10:57:47.203Z,14.72
2023-05-10T11:00:37.153Z,14.74
2023-05-10T11:03:15.741Z,14.78
2023-05-10T11:05:47.504Z,14.80
2023-05-10T11:08:29.013Z,14.78
2023-05-10T11:11:10.195Z,14.85
2023-05-10T11:13:46.763Z,14.89
2023-05-10T11:16:19.798Z,14.93
2023-05-10T11:19:05.090Z,14.98
2023-05-10T11:21:33.785Z,15.08
2023-05-10T11:24:01.964Z,15.12
2023-05-10T11:26:34.492Z,15.19
2023-05-10T11:29:03.036Z,15.17
2023-05-10T11:31:30.972Z,15.19
2023-05-10T11:33:59.876Z,15.12
2023-05-10T11:36:29.212Z,15.11
2023-05-10T11:38:57.461Z,15.14
2023-05-10T11:41:25.541Z,15.12
2023-05-10T11:43:54.123Z,15.06
2023-05-10T11:46:23.040Z,15.04
2023-05-10T11:48:52.317Z,15.04
2023-05-10T11:51:24.450Z,15.08
2023-05-10T11:53:56.228Z,15.05
2023-05-10T11:56:24.682Z,15.04
2023-05-10T11:58:56.819Z,15.05
2023-05-10T12:01:27.869Z,15.05
2023-05-10T12:03:59.593Z,15.08
2023-05-10T12:06:32.305Z,15.08
2023-05-10T12:09:00.224Z,15.09
2023-05-10T12:11:29.568Z,15.16
2023-05-10T12:13:57.539Z,15.19
2023-05-10T12:16:26.879Z,15.23
2023-05-10T12:18:57.155Z,15.24
2023-05-10T12:21:24.889Z,15.31
2023-05-10T12:23:53.622Z,15.40
2023-05-10T12:26:27.608Z,15.48
2023-05-10T12:28:55.717Z,15.56
2023-05-10T12:31:23.663Z,15.63
2023-05-10T12:33:51.135Z,15.62
2023-05-10T12:36:19.043Z,15.40
2023-05-10T12:38:49.328Z,15.34
2023-05-10T12:41:18.172Z,15.17
2023-05-10T12:43:46.638Z,15.14
2023-05-10T12:46:15.450Z,15.14
2023-05-10T12:48:43.840Z,15.13
2023-05-10T12:51:13.323Z,15.22
2023-05-10T12:53:42.733Z,15.25
2023-05-10T12:56:12.304Z,15.26
2023-05-10T12:58:39.687Z,15.25
2023-05-10T13:01:35.048Z,15.22
2023-05-10T13:04:02.529Z,15.08
2023-05-10T13:06:30.555Z,15.07
2023-05-10T13:08:58.714Z,15.02
2023-05-10T13:11:26.447Z,14.94
2023-05-10T13:13:54.080Z,14.85
2023-05-10T13:16:21.670Z,14.81
2023-05-10T13:18:49.479Z,14.70
2023-05-10T13:21:17.703Z,14.64
2023-05-10T13:23:45.227Z,14.60
2023-05-10T13:26:12.749Z,14.52
2023-05-10T13:28:40.377Z,14.47
2023-05-10T13:31:08.851Z,14.40
2023-05-10T13:33:36.690Z,14.39
2023-05-10T13:36:04.560Z,14.43
2023-05-10T13:38:32.594Z,14.35
2023-05-10T13:41:00.192Z,14.32
2023-05-10T13:43:28.231Z,14.40
2023-05-10T13:45:56.000Z,14.45
2023-05-10T13:48:23.776Z,14.48
2023-05-10T13:50:51.323Z,14.55
2023-05-10T13:53:19.496Z,14.60
2023-05-10T13:56:37.701Z,14.53
2023-05-10T13:59:05.386Z,14.68
2023-05-10T14:01:33.081Z,14.72
2023-05-10T14:04:01.354Z,14.84
2023-05-10T14:06:29.329Z,14.92
2023-05-10T14:08:57.504Z,14.97
2023-05-10T14:11:25.147Z,15.04
2023-05-10T14:13:52.717Z,15.15
2023-05-10T14:16:21.347Z,15.19
2023-05-10T14:18:49.019Z,15.15
2023-05-10T14:21:16.746Z,15.12
2023-05-10T14:23:44.711Z,15.07
2023-05-10T14:26:12.452Z,15.00
2023-05-10T14:28:40.115Z,14.97
2023-05-10T14:31:07.769Z,15.03
2023-05-10T14:33:35.996Z,15.05
2023-05-10T14:36:04.635Z,14.99
2023-05-10T14:38:32.372Z,14.97
2023-05-10T14:40:59.896Z,14.89
2023-05-10T14:43:29.164Z,14.88
2023-05-10T14:45:56.993Z,14.87
2023-05-10T14:48:24.519Z,14.88
2023-05-10T14:50:53.566Z,14.89
2023-05-10T14:53:46.841Z,14.93
2023-05-10T14:56:14.510Z,14.96
2023-05-10T14:58:42.348Z,14.96
2023-05-10T15:01:09.900Z,14.98
2023-05-10T15:03:38.178Z,15.02
2023-05-10T15:06:06.858Z,15.01
2023-05-10T15:08:34.505Z,14.98
2023-05-10T15:11:02.539Z,14.98
2023-05-10T15:13:30.132Z,15.00
2023-05-10T15:15:57.979Z,15.05
2023-05-10T15:18:25.734Z,15.11
2023-05-10T15:20:53.379Z,15.12
2023-05-10T15:23:20.906Z,15.13
2023-05-10T15:25:50.585Z,15.10
2023-05-10T15:28:18.460Z,15.10
2023-05-10T15:30:46.142Z,15.07
2023-05-10T15:33:13.934Z,15.05
2023-05-10T15:35:42.184Z,15.03
2023-05-10T15:38:10.767Z,15.01
2023-05-10T15:40:38.382Z,14.99
2023-05-10T15:43:08.975Z,14.96
2023-05-10T15:45:37.748Z,14.92
2023-05-10T15:48:05.661Z,14.87
2023-05-10T15:50:33.313Z,14.85
2023-05-10T15:53:01.112Z,14.84
2023-05-10T15:55:29.015Z,14.80
2023-05-10T15:57:56.632Z,14.77
2023-05-10T16:00:24.374Z,14.72
2023-05-10T16:02:54.184Z,14.57
2023-05-10T16:05:22.641Z,14.51
2023-05-10T16:07:50.409Z,14.48
2023-05-10T16:10:18.048Z,14.41
2023-05-10T16:12:45.916Z,14.38
2023-05-10T16:15:13.589Z,14.35
2023-05-10T16:17:41.943Z,14.28
2023-05-10T16:20:10.117Z,14.28
2023-05-10T16:22:37.708Z,14.28
2023-05-10T16:25:06.326Z,14.28
2023-05-10T16:27:34.205Z,14.30
2023-05-10T16:30:02.246Z,14.32
2023-05-10T16:32:30.558Z,14.32
2023-05-10T16:34:59.119Z,14.34
2023-05-10T16:37:26.803Z,14.32
2023-05-10T16:39:54.353Z,14.32
2023-05-10T16:42:22.033Z,14.30
2023-05-10T16:44:49.745Z,14.29
2023-05-10T16:47:17.384Z,14.29
2023-05-10T16:49:45.037Z,14.28
2023-05-10T16:52:12.622Z,14.25
2023-05-10T16:54:40.344Z,14.22
2023-05-10T16:57:08.669Z,14.20
2023-05-10T16:59:36.481Z,14.16
2023-05-10T17:02:04.169Z,14.16
2023-05-10T17:04:31.976Z,14.14
2023-05-10T17:06:59.541Z,14.14
2023-05-10T17:09:27.562Z,14.12
2023-05-10T17:11:55.713Z,14.10
2023-05-10T17:14:23.476Z,14.08
2023-05-10T17:16:52.862Z,14.05
2023-05-10T17:19:20.645Z,14.04
2023-05-10T17:21:48.225Z,14.03
2023-05-10T17:24:15.877Z,14.00
2023-05-10T17:26:43.560Z,13.97
2023-05-10T17:29:11.362Z,13.95
2023-05-10T17:31:39.299Z,13.94
2023-05-10T17:34:07.027Z,13.89
2023-05-10T17:36:34.609Z,13.82
2023-05-10T17:39:02.210Z,13.77
2023-05-10T17:41:29.818Z,13.71
2023-05-10T17:43:57.791Z,13.65
2023-05-10T17:46:25.557Z,13.61
2023-05-10T17:48:53.475Z,13.58
2023-05-10T17:51:21.185Z,13.55
2023-05-10T17:53:48.954Z,13.51
2023-05-10T17:56:16.730Z,13.47
2023-05-10T17:58:44.465Z,13.42
2023-05-10T18:01:12.233Z,13.38
2023-05-10T18:03:40.183Z,13.34
2023-05-10T18:06:07.776Z,13.32
2023-05-10T18:08:35.639Z,13.31
2023-05-10T18:11:03.299Z,13.28
2023-05-10T18:13:31.022Z,13.24
2023-05-10T18:15:58.581Z,13.22
2023-05-10T18:18:26.474Z,13.20
2023-05-10T18:20:56.831Z,13.19
2023-05-10T18:23:24.729Z,13.16
2023-05-10T18:25:52.557Z,13.14
2023-05-10T18:28:20.148Z,13.10
2023-05-10T18:30:47.904Z,13.07
2023-05-10T18:33:16.080Z,13.06
2023-05-10T18:35:43.674Z,13.05
2023-05-10T18:38:12.618Z,13.04
2023-05-10T18:40:41.004Z,12.99
2023-05-10T18:43:09.118Z,12.96
2023-05-10T18:45:36.783Z,12.92
2023-05-10T18:48:04.630Z,12.91
2023-05-10T18:50:32.872Z,12.88
2023-05-10T18:53:00.413Z,12.85
2023-05-10T18:55:28.498Z,12.83
2023-05-10T18:57:56.414Z,12.80
2023-05-10T19:00:24.209Z,12.78
2023-05-10T19:02:53.675Z,12.74
2023-05-10T19:05:21.410Z,12.72
2023-05-10T19:07:49.053Z,12.70
2023-05-10T19:10:16.734Z,12.69
2023-05-10T19:12:44.380Z,12.69
2023-05-10T19:15:12.159Z,12.67
2023-05-10T19:17:41.346Z,12.67
2023-05-10T19:20:11.422Z,12.67
2023-05-10T19:22:54.186Z,12.67
2023-05-10T19:25:29.497Z,12.65
2023-05-10T19:27:59.945Z,12.64
2023-05-10T19:30:30.506Z,12.62
2023-05-10T19:32:58.440Z,12.62
2023-05-10T19:35:26.114Z,12.61
2023-05-10T19:37:53.650Z,12.59
2023-05-10T19:40:21.289Z,12.56
2023-05-10T19:42:48.830Z,12.53
2023-05-10T19:45:16.925Z,12.48
2023-05-10T19:47:45.166Z,12.47
2023-05-10T19:50:12.969Z,12.44
2023-05-10T19:52:41.124Z,12.45
2023-05-10T19:55:10.233Z,12.45
2023-05-10T19:57:38.490Z,12.45
2023-05-10T20:00:10.602Z,12.42
2023-05-10T20:02:41.750Z,12.40
2023-05-10T20:05:10.320Z,12.40
2023-05-10T20:07:38.598Z,12.35
2023-05-10T20:10:07.343Z,12.32
2023-05-10T20:12:37.373Z,12.28
2023-05-10T20:15:07.567Z,12.28
2023-05-10T20:17:35.613Z,12.25
2023-05-10T20:20:03.981Z,12.21
2023-05-10T20:22:33.261Z,12.17
2023-05-10T20:25:00.784Z,12.11
2023-05-10T20:27:28.603Z,12.09
2023-05-10T20:29:56.595Z,12.06
2023-05-10T20:32:24.111Z,11.99
2023-05-10T20:34:51.952Z,11.92
2023-05-10T20:37:19.695Z,11.82
2023-05-10T20:39:49.807Z,11.77
2023-05-10T20:42:18.068Z,11.64
2023-05-10T20:44:45.565Z,11.60
2023-05-10T20:47:14.689Z,11.61
2023-05-10T20:49:42.883Z,11.55
2023-05-10T20:52:13.137Z,11.47
2023-05-10T20:54:40.709Z,11.46
2023-05-10T20:57:08.215Z,11.42
2023-05-10T20:59:35.938Z,11.36
2023-05-10T21:02:03.495Z,11.28
2023-05-10T21:04:31.168Z,11.17
2023-05-10T21:06:58.832Z,11.16
2023-05-10T21:09:26.710Z,11.18
2023-05-10T21:11:55.016Z,11.21
2023-05-10T21:14:22.521Z,11.21
2023-05-10T21:16:51.344Z,11.21
2023-05-10T21:19:19.034Z,11.21
2023-05-10T21:21:46.581Z,11.19
2023-05-10T21:24:14.093Z,11.19
2023-05-10T21:26:42.083Z,11.17
2023-05-10T21:29:09.453Z,11.17
2023-05-10T21:31:36.981Z,11.15
2023-05-10T21:34:04.994Z,11.11
2023-05-10T21:36:32.547Z,11.11
2023-05-10T21:39:00.137Z,11.10
2023-05-10T21:41:30.779Z,11.10
2023-05-10T21:44:00.144Z,11.08
2023-05-10T21:46:27.780Z,11.06
2023-05-10T21:48:55.836Z,11.04
2023-05-10T21:51:23.365Z,11.03
2023-05-10T21:53:50.935Z,11.03
2023-05-10T21:56:18.522Z,11.01
2023-05-10T21:58:45.963Z,10.98
2023-05-10T22:01:15.140Z,10.96
2023-05-10T22:03:42.650Z,10.95
2023-05-10T22:06:10.239Z,10.94
2023-05-10T22:08:37.865Z,10.94
2023-05-10T22:11:05.617Z,10.95
2023-05-10T22:13:33.384Z,10.95
2023-05-10T22:16:00.907Z,10.94
2023-05-10T22:18:28.581Z,10.92
2023-05-10T22:20:56.114Z,10.90
2023-05-10T22:23:24.101Z,10.89
2023-05-10T22:25:52.097Z,10.88
2023-05-10T22:28:19.543Z,10.87
2023-05-10T22:30:48.312Z,10.88
2023-05-10T22:33:15.898Z,10.90
2023-05-10T22:35:43.429Z,10.91
2023-05-10T22:38:11.185Z,10.92
2023-05-10T22:40:39.391Z,10.90
2023-05-10T22:43:07.068Z,10.86
2023-05-10T22:45:35.207Z,10.84
2023-05-10T22:48:05.268Z,10.85
2023-05-10T22:50:33.131Z,10.86
2023-05-10T22:53:00.443Z,10.87
2023-05-10T22:55:27.934Z,10.86
2023-05-10T22:57:55.305Z,10.85
2023-05-10T23:00:22.997Z,10.85
2023-05-10T23:02:50.595Z,10.84
2023-05-10T23:05:18.307Z,10.82
2023-05-10T23:07:48.438Z,10.77
2023-05-10T23:10:16.358Z,10.73
2023-05-10T23:12:44.034Z,10.68
2023-05-10T23:15:11.915Z,10.67
2023-05-10T23:17:39.657Z,10.65
2023-05-10T23:20:07.758Z,10.62
2023-05-10T23:22:36.171Z,10.61
2023-05-10T23:25:03.918Z,10.60
2023-05-10T23:27:32.031Z,10.49
2023-05-10T23:29:59.526Z,10.46
2023-05-10T23:32:27.218Z,10.47
2023-05-10T23:34:54.815Z,10.47
2023-05-10T23:37:22.370Z,10.46
2023-05-10T23:39:49.948Z,10.43
2023-05-10T23:42:17.408Z,10.40
2023-05-10T23:44:44.834Z,10.37
2023-05-10T23:47:12.769Z,10.37
2023-05-10T23:49:42.290Z,10.38
2023-05-10T23:52:09.955Z,10.38
2023-05-10T23:54:37.529Z,10.38
2023-05-10T23:57:05.094Z,10.38
2023-05-10T23:59:33.318Z,10.35
